Time;durP1;ratioP1;P1;durP2;ratioP2;P2;SDS_P1;SDS_P2;PMS_P1;PMS_P2;Temp;Humidity;BMP_temperature;BMP_pressure;BME280_temperature;BME280_humidity;BME280_pressure;Samples;Min_cycle;Max_cycle;Signal;HPM_P1;HPM_P2
2023/12/27 00:00:49;;;;;;;14.30;3.63;;;6.90;99.90;;;;;;6317785;28;20096;-82
2023/12/27 00:03:51;;;;;;;15.32;3.80;;;6.90;99.90;;;;;;6317610;28;20044;-82
2023/12/27 00:06:53;;;;;;;13.95;3.58;;;6.90;99.90;;;;;;6320686;28;20052;-82
2023/12/27 00:09:55;;;;;;;12.20;3.30;;;7.00;99.90;;;;;;6279010;28;20053;-83
2023/12/27 00:12:57;;;;;;;10.13;3.20;;;7.00;99.90;;;;;;6318082;28;20523;-82
2023/12/27 00:15:58;;;;;;;13.38;3.42;;;7.00;99.90;;;;;;6250909;28;20056;-82
2023/12/27 00:19:00;;;;;;;13.27;3.38;;;7.00;99.90;;;;;;6270694;28;20064;-82
2023/12/27 00:22:02;;;;;;;15.43;3.40;;;7.00;99.90;;;;;;6323358;28;20418;-81
2023/12/27 00:25:03;;;;;;;12.82;3.45;;;7.10;99.90;;;;;;6281869;28;20067;-81
2023/12/27 00:28:05;;;;;;;14.15;3.60;;;7.10;99.90;;;;;;6318454;28;20504;-81
2023/12/27 00:31:07;;;;;;;13.27;3.08;;;7.20;99.90;;;;;;6304300;28;20051;-82
2023/12/27 00:34:08;;;;;;;13.25;3.25;;;7.20;99.90;;;;;;6322568;28;20143;-81
2023/12/27 00:37:10;;;;;;;17.83;3.63;;;7.30;99.90;;;;;;6297294;28;20486;-82
2023/12/27 00:40:12;;;;;;;13.95;3.45;;;7.40;99.90;;;;;;6321947;28;20052;-82
2023/12/27 00:43:13;;;;;;;16.00;3.10;;;7.50;99.90;;;;;;6282919;28;20040;-81
2023/12/27 00:46:15;;;;;;;17.60;3.08;;;7.50;99.90;;;;;;6319701;28;20063;-82
2023/12/27 00:49:17;;;;;;;19.38;3.75;;;7.50;99.90;;;;;;6321544;28;20494;-82
2023/12/27 00:52:18;;;;;;;19.02;3.47;;;7.50;99.90;;;;;;6316489;28;20438;-82
2023/12/27 00:55:20;;;;;;;11.07;2.85;;;7.50;99.90;;;;;;6278753;28;20427;-81
2023/12/27 00:58:21;;;;;;;17.25;3.15;;;7.50;99.90;;;;;;6299420;28;20063;-82
2023/12/27 01:01:23;;;;;;;16.63;3.22;;;7.70;99.90;;;;;;6276178;28;20577;-81
2023/12/27 01:04:25;;;;;;;10.90;2.78;;;7.70;99.90;;;;;;6321381;28;20511;-82
2023/12/27 01:07:27;;;;;;;18.58;4.07;;;7.70;99.90;;;;;;6296676;28;20052;-82
2023/12/27 01:10:28;;;;;;;14.82;3.17;;;7.80;99.90;;;;;;6320319;28;20083;-82
2023/12/27 01:13:30;;;;;;;16.25;3.03;;;7.80;99.90;;;;;;6301205;28;20067;-81
2023/12/27 01:16:31;;;;;;;13.55;2.88;;;7.90;99.90;;;;;;6303057;28;20055;-82
2023/12/27 01:19:33;;;;;;;15.55;3.28;;;7.90;99.90;;;;;;6313210;28;20064;-82
2023/12/27 01:22:35;;;;;;;18.42;2.97;;;7.80;99.90;;;;;;6320851;28;20052;-82
2023/12/27 01:25:36;;;;;;;14.35;3.13;;;7.80;99.90;;;;;;6302531;28;20056;-82
2023/12/27 01:28:38;;;;;;;13.93;3.10;;;7.90;99.90;;;;;;6295010;28;20306;-82
2023/12/27 01:31:40;;;;;;;22.25;3.92;;;7.80;99.90;;;;;;6301118;28;20055;-82
2023/12/27 01:34:41;;;;;;;14.77;3.08;;;7.80;99.90;;;;;;6320110;28;20058;-82
2023/12/27 01:37:44;;;;;;;15.80;2.85;;;7.80;99.90;;;;;;6302676;28;20156;-81
2023/12/27 01:40:45;;;;;;;13.25;3.08;;;7.70;99.90;;;;;;6320300;28;20067;-82
2023/12/27 01:43:47;;;;;;;12.85;2.75;;;7.80;99.90;;;;;;6281662;28;20051;-82
2023/12/27 01:46:48;;;;;;;16.15;3.42;;;7.80;99.90;;;;;;6295530;28;20056;-82
2023/12/27 01:49:50;;;;;;;14.57;2.85;;;7.80;99.90;;;;;;6270876;28;20040;-83
2023/12/27 01:52:52;;;;;;;14.48;2.97;;;7.80;99.90;;;;;;6294571;28;20063;-84
2023/12/27 01:55:54;;;;;;;13.48;2.63;;;7.80;99.90;;;;;;6270383;28;20053;-84
2023/12/27 01:58:55;;;;;;;14.68;3.13;;;7.80;99.90;;;;;;6261946;28;20049;-84
2023/12/27 02:01:57;;;;;;;10.60;2.38;;;7.80;99.90;;;;;;6260857;28;20053;-84
2023/12/27 02:04:58;;;;;;;13.40;2.50;;;7.70;99.90;;;;;;6252668;28;20049;-84
2023/12/27 02:08:00;;;;;;;11.70;2.75;;;7.80;99.90;;;;;;6284826;28;20049;-84
2023/12/27 02:11:02;;;;;;;11.50;2.58;;;7.80;99.90;;;;;;6293717;28;20052;-84
2023/12/27 02:14:03;;;;;;;8.13;2.65;;;7.90;99.90;;;;;;6278712;28;20052;-84
2023/12/27 02:17:05;;;;;;;15.05;2.88;;;7.90;99.90;;;;;;6252230;28;20056;-84
2023/12/27 02:20:07;;;;;;;11.07;2.58;;;7.90;99.90;;;;;;6293869;28;20071;-84
2023/12/27 02:23:08;;;;;;;10.18;2.65;;;7.90;99.90;;;;;;6269738;28;20049;-84
2023/12/27 02:26:10;;;;;;;12.02;2.75;;;7.90;99.90;;;;;;6276341;28;20060;-84
2023/12/27 02:29:11;;;;;;;13.73;2.55;;;7.90;99.90;;;;;;6280698;28;20064;-84
2023/12/27 02:32:13;;;;;;;10.27;2.88;;;8.00;99.90;;;;;;6252046;28;20055;-84
2023/12/27 02:35:15;;;;;;;11.75;3.05;;;7.90;99.90;;;;;;6275894;28;20056;-84
2023/12/27 02:38:17;;;;;;;11.40;2.90;;;7.90;99.90;;;;;;6280504;28;20757;-84
2023/12/27 02:41:19;;;;;;;11.10;3.15;;;7.90;99.90;;;;;;6265350;28;20067;-84
2023/12/27 02:44:20;;;;;;;12.73;2.90;;;7.90;99.90;;;;;;6275363;28;20059;-84
2023/12/27 02:47:22;;;;;;;10.77;2.50;;;8.00;99.90;;;;;;6297228;28;20048;-84
2023/12/27 02:50:23;;;;;;;9.00;2.28;;;8.00;99.90;;;;;;6314955;28;20056;-83
2023/12/27 02:53:25;;;;;;;9.10;2.30;;;8.00;99.90;;;;;;6318199;28;20044;-83
2023/12/27 02:56:27;;;;;;;11.70;2.58;;;8.00;99.90;;;;;;6287546;28;20059;-84
2023/12/27 02:59:28;;;;;;;10.82;2.30;;;8.00;99.90;;;;;;6313412;28;20057;-85
2023/12/27 03:02:30;;;;;;;7.70;2.00;;;8.00;99.90;;;;;;6288909;28;20089;-84
2023/12/27 03:05:31;;;;;;;9.80;2.40;;;8.00;99.90;;;;;;6318847;28;20075;-85
2023/12/27 03:08:35;;;;;;;8.93;2.40;;;8.10;99.90;;;;;;6309477;28;20707;-84
2023/12/27 03:11:37;;;;;;;7.68;2.30;;;8.10;99.90;;;;;;6287457;28;20048;-84
2023/12/27 03:14:39;;;;;;;8.82;2.50;;;8.10;99.90;;;;;;6300249;28;20405;-84
2023/12/27 03:17:40;;;;;;;10.40;2.50;;;8.10;99.90;;;;;;6315474;28;20080;-84
2023/12/27 03:20:42;;;;;;;9.05;2.60;;;8.20;99.90;;;;;;6299443;28;20629;-83
2023/12/27 03:23:44;;;;;;;10.18;2.50;;;8.20;99.90;;;;;;6313607;28;20055;-83
2023/12/27 03:26:45;;;;;;;9.60;2.35;;;8.20;99.90;;;;;;6300314;28;20060;-83
2023/12/27 03:29:47;;;;;;;6.05;2.40;;;8.20;99.90;;;;;;6304653;28;20055;-83
2023/12/27 03:32:48;;;;;;;9.55;2.38;;;8.30;99.90;;;;;;6302017;28;20059;-82
2023/12/27 03:35:50;;;;;;;7.35;2.35;;;8.30;99.90;;;;;;6276229;28;20515;-83
2023/12/27 03:38:52;;;;;;;7.07;2.58;;;8.30;99.90;;;;;;6299625;28;20056;-83
2023/12/27 03:41:53;;;;;;;6.82;2.40;;;8.30;99.90;;;;;;6317039;28;20097;-83
2023/12/27 03:44:55;;;;;;;8.43;2.50;;;8.40;99.90;;;;;;6281275;28;20773;-84
2023/12/27 03:47:57;;;;;;;6.97;2.42;;;8.40;99.90;;;;;;6275833;28;20059;-83
2023/12/27 03:50:59;;;;;;;6.70;2.47;;;8.40;99.90;;;;;;6271254;28;20055;-83
2023/12/27 03:54:01;;;;;;;8.50;2.88;;;8.50;99.90;;;;;;6269928;28;20736;-83
2023/12/27 03:57:02;;;;;;;6.63;2.70;;;8.50;99.90;;;;;;6286906;28;20646;-83
2023/12/27 04:00:04;;;;;;;7.55;2.60;;;8.60;99.90;;;;;;6286514;28;20139;-83
2023/12/27 04:03:06;;;;;;;6.43;2.72;;;8.50;99.90;;;;;;6284660;28;20080;-82
2023/12/27 04:06:07;;;;;;;7.32;2.67;;;8.60;99.90;;;;;;6302923;28;20487;-83
2023/12/27 04:09:09;;;;;;;8.27;2.90;;;8.60;99.90;;;;;;6260130;28;20056;-83
2023/12/27 04:12:11;;;;;;;7.07;2.97;;;8.70;99.90;;;;;;6279115;28;20139;-83
2023/12/27 04:15:12;;;;;;;8.90;3.10;;;8.80;99.90;;;;;;6286945;28;20053;-83
2023/12/27 04:18:14;;;;;;;7.13;3.25;;;8.80;99.90;;;;;;6259641;28;20057;-84
2023/12/27 04:21:16;;;;;;;9.27;3.25;;;8.90;99.90;;;;;;6267919;28;20053;-84
2023/12/27 04:24:17;;;;;;;9.13;3.35;;;9.00;99.90;;;;;;6277978;28;20139;-84
2023/12/27 04:27:19;;;;;;;9.65;3.53;;;9.00;99.90;;;;;;6279259;28;20060;-83
2023/12/27 04:30:21;;;;;;;9.57;3.30;;;9.10;99.90;;;;;;6273264;28;20059;-83
2023/12/27 04:33:22;;;;;;;8.63;3.22;;;9.20;99.90;;;;;;6276614;28;20048;-83
2023/12/27 04:36:24;;;;;;;7.72;3.10;;;9.20;99.90;;;;;;6297454;28;20642;-82
2023/12/27 04:39:26;;;;;;;8.65;3.17;;;9.30;99.90;;;;;;6255247;28;20065;-83
2023/12/27 04:42:28;;;;;;;9.68;3.38;;;9.30;99.90;;;;;;6296346;28;20139;-82
2023/12/27 04:45:29;;;;;;;13.70;3.28;;;9.40;99.90;;;;;;6305591;28;20704;-84
2023/12/27 04:48:31;;;;;;;9.35;2.75;;;9.50;99.90;;;;;;6297052;28;20396;-84
2023/12/27 04:51:33;;;;;;;8.38;2.92;;;9.60;99.90;;;;;;6303069;28;20052;-82
2023/12/27 04:54:34;;;;;;;8.52;2.67;;;9.60;99.90;;;;;;6279323;28;20056;-83
2023/12/27 04:57:36;;;;;;;9.73;2.55;;;9.70;99.90;;;;;;6321069;28;20171;-83
2023/12/27 05:00:38;;;;;;;9.10;2.75;;;9.70;99.90;;;;;;6285736;28;20586;-83
2023/12/27 05:03:40;;;;;;;8.88;3.00;;;9.80;99.90;;;;;;6298969;28;20053;-83
2023/12/27 05:06:42;;;;;;;12.52;3.35;;;9.90;99.90;;;;;;6318754;28;20141;-83
2023/12/27 05:09:43;;;;;;;14.45;3.47;;;10.00;99.90;;;;;;6303142;28;20079;-84
2023/12/27 05:12:45;;;;;;;13.40;3.30;;;10.00;99.90;;;;;;6296629;28;20542;-84
2023/12/27 05:15:47;;;;;;;9.63;3.20;;;10.00;99.90;;;;;;6299970;28;20454;-83
2023/12/27 05:18:49;;;;;;;13.75;3.75;;;10.10;99.90;;;;;;6320477;28;20052;-84
2023/12/27 05:21:50;;;;;;;18.48;4.15;;;10.10;99.90;;;;;;6278371;28;20060;-84
2023/12/27 05:24:52;;;;;;;13.75;3.47;;;10.20;99.90;;;;;;6290293;28;20048;-85
2023/12/27 05:27:54;;;;;;;14.63;3.45;;;10.20;99.90;;;;;;6318863;28;20069;-85
2023/12/27 05:30:55;;;;;;;11.23;3.20;;;10.30;99.90;;;;;;6301437;28;20062;-84
2023/12/27 05:33:57;;;;;;;14.07;3.78;;;10.30;99.90;;;;;;6282566;28;20040;-85
2023/12/27 05:36:59;;;;;;;19.45;3.90;;;10.30;99.90;;;;;;6309335;28;20060;-84
2023/12/27 05:40:01;;;;;;;18.55;3.47;;;10.30;99.90;;;;;;6319974;28;20399;-85
2023/12/27 05:43:03;;;;;;;13.45;3.33;;;10.40;99.90;;;;;;6298553;28;20075;-87
2023/12/27 05:46:05;;;;;;;15.80;3.70;;;10.50;99.90;;;;;;6298036;28;20060;-85
2023/12/27 05:49:07;;;;;;;16.30;4.20;;;10.50;99.90;;;;;;6291810;28;20064;-84
2023/12/27 05:52:09;;;;;;;13.38;3.38;;;10.50;99.90;;;;;;6319412;28;20047;-86
2023/12/27 05:55:10;;;;;;;15.85;3.85;;;10.60;99.90;;;;;;6301675;28;20454;-85
2023/12/27 05:58:12;;;;;;;13.35;3.85;;;10.60;99.90;;;;;;6294653;28;20577;-85
2023/12/27 06:01:13;;;;;;;14.50;4.22;;;10.60;99.90;;;;;;6286444;28;20561;-84
2023/12/27 06:04:15;;;;;;;13.93;3.92;;;10.60;99.90;;;;;;6284685;28;20828;-84
2023/12/27 06:07:17;;;;;;;16.52;4.03;;;10.70;99.90;;;;;;6315619;28;20085;-84
2023/12/27 06:10:18;;;;;;;12.60;3.83;;;10.70;99.90;;;;;;6295858;28;20154;-84
2023/12/27 06:13:20;;;;;;;11.48;4.05;;;10.70;99.90;;;;;;6299798;28;20063;-84
2023/12/27 06:16:22;;;;;;;13.98;3.95;;;10.70;99.90;;;;;;6298743;28;20068;-85
2023/12/27 06:19:23;;;;;;;19.90;4.53;;;10.80;99.90;;;;;;6302504;28;20083;-85
2023/12/27 06:22:25;;;;;;;20.08;4.38;;;10.80;99.90;;;;;;6278413;28;20483;-84
2023/12/27 06:25:27;;;;;;;12.90;4.28;;;10.80;99.90;;;;;;6303651;28;20060;-85
2023/12/27 06:28:28;;;;;;;18.48;4.50;;;10.80;99.90;;;;;;6306850;28;20059;-85
2023/12/27 06:31:30;;;;;;;14.77;4.38;;;10.80;99.90;;;;;;6300970;28;20040;-85
2023/12/27 06:34:32;;;;;;;16.33;4.55;;;11.00;99.90;;;;;;6294548;28;20416;-85
2023/12/27 06:37:34;;;;;;;14.32;4.57;;;11.00;99.90;;;;;;6303327;28;20136;-89
2023/12/27 06:40:39;;;;;;;15.30;4.43;;;11.00;99.90;;;;;;6291972;28;20140;-87
2023/12/27 06:43:42;;;;;;;15.88;4.85;;;11.00;99.90;;;;;;6293563;28;20052;-86
2023/12/27 06:46:44;;;;;;;15.90;4.65;;;11.00;99.90;;;;;;6299286;28;20155;-86
2023/12/27 06:49:47;;;;;;;15.85;3.97;;;11.10;99.90;;;;;;6304145;28;20058;-86
2023/12/27 06:52:49;;;;;;;11.00;4.32;;;11.10;99.90;;;;;;6302827;28;20193;-85
2023/12/27 06:55:51;;;;;;;17.75;4.28;;;11.10;99.90;;;;;;6289986;28;20086;-88
2023/12/27 06:58:53;;;;;;;17.27;4.57;;;11.10;99.90;;;;;;6289996;28;20496;-87
2023/12/27 07:01:54;;;;;;;13.10;4.68;;;11.10;99.90;;;;;;6302224;28;20044;-88
2023/12/27 07:04:56;;;;;;;16.33;4.63;;;11.10;99.90;;;;;;6300945;28;20551;-89
2023/12/27 07:07:58;;;;;;;14.52;4.18;;;11.10;99.90;;;;;;6304521;28;20047;-87
2023/12/27 07:11:00;;;;;;;14.95;4.15;;;11.20;99.90;;;;;;6281521;28;20488;-88
2023/12/27 07:14:01;;;;;;;14.52;4.25;;;11.20;99.90;;;;;;6298250;28;20052;-88
2023/12/27 07:17:04;;;;;;;17.73;4.25;;;11.20;99.90;;;;;;6314310;28;20047;-86
2023/12/27 07:20:05;;;;;;;16.80;4.53;;;11.10;99.90;;;;;;6319188;28;20059;-87
2023/12/27 07:23:07;;;;;;;13.07;4.05;;;11.20;99.90;;;;;;6280353;28;20609;-88
2023/12/27 07:26:09;;;;;;;15.00;4.70;;;11.10;99.90;;;;;;6300720;28;20044;-86
2023/12/27 07:29:11;;;;;;;16.13;4.18;;;11.20;99.90;;;;;;6286432;28;20055;-85
2023/12/27 07:32:12;;;;;;;11.73;3.60;;;11.10;99.90;;;;;;6288067;28;20503;-88
2023/12/27 07:35:14;;;;;;;14.77;4.35;;;11.00;99.90;;;;;;6302181;28;20051;-87
2023/12/27 07:38:16;;;;;;;14.60;3.90;;;10.90;99.90;;;;;;6281361;28;20063;-86
2023/12/27 07:41:17;;;;;;;11.38;4.05;;;11.00;99.90;;;;;;6302395;28;20055;-86
2023/12/27 07:44:19;;;;;;;12.68;4.20;;;11.00;99.90;;;;;;6287021;28;20082;-85
2023/12/27 07:47:21;;;;;;;14.57;4.82;;;11.00;99.90;;;;;;6276823;28;20053;-87
2023/12/27 07:50:22;;;;;;;13.98;4.50;;;11.00;99.90;;;;;;6275498;28;20534;-86
2023/12/27 07:53:24;;;;;;;15.93;5.53;;;11.10;99.90;;;;;;6271974;28;20084;-86
2023/12/27 07:56:26;;;;;;;17.92;5.82;;;11.10;99.90;;;;;;6289507;28;20052;-86
2023/12/27 07:59:27;;;;;;;16.85;5.38;;;11.20;99.90;;;;;;6293272;28;20048;-87
2023/12/27 08:02:30;;;;;;;16.50;5.60;;;11.20;99.90;;;;;;6256852;28;20424;-87
2023/12/27 08:05:32;;;;;;;18.40;5.25;;;11.20;99.90;;;;;;6277514;28;20151;-86
2023/12/27 08:08:34;;;;;;;15.45;5.20;;;11.20;99.90;;;;;;6258209;28;20100;-87
2023/12/27 08:11:36;;;;;;;18.92;5.40;;;11.30;99.90;;;;;;6293216;28;20052;-86
2023/12/27 08:14:38;;;;;;;19.98;5.72;;;11.30;99.90;;;;;;6274716;28;20064;-87
2023/12/27 08:17:39;;;;;;;15.57;4.97;;;11.30;99.90;;;;;;6274618;28;20053;-87
2023/12/27 08:20:41;;;;;;;17.13;5.38;;;11.40;99.90;;;;;;6289597;28;20060;-89
2023/12/27 08:23:43;;;;;;;16.35;5.07;;;11.50;99.90;;;;;;6263597;28;20053;-87
2023/12/27 08:26:44;;;;;;;17.80;5.03;;;11.50;99.90;;;;;;6248018;28;20053;-87
2023/12/27 08:29:46;;;;;;;16.73;5.30;;;11.50;99.90;;;;;;6264750;28;20813;-88
2023/12/27 08:32:48;;;;;;;24.45;5.45;;;11.60;99.90;;;;;;6267839;28;20064;-89
2023/12/27 08:35:50;;;;;;;17.35;5.57;;;11.70;99.90;;;;;;6295258;28;20190;-86
2023/12/27 08:38:52;;;;;;;18.13;4.90;;;11.60;99.90;;;;;;6276354;28;20055;-85
2023/12/27 08:41:54;;;;;;;13.85;4.82;;;11.70;99.90;;;;;;6273389;28;20057;-83
2023/12/27 08:44:56;;;;;;;17.42;5.65;;;11.70;99.90;;;;;;6277706;28;20067;-86
2023/12/27 08:47:57;;;;;;;16.48;4.60;;;11.70;99.90;;;;;;6309419;28;20056;-90
2023/12/27 08:50:59;;;;;;;15.65;4.85;;;11.70;99.90;;;;;;6306955;28;20051;-85
2023/12/27 08:54:02;;;;;;;14.35;5.18;;;11.70;99.90;;;;;;6311971;28;20186;-85
2023/12/27 08:57:04;;;;;;;13.40;4.60;;;11.80;99.90;;;;;;6308593;28;20052;-88
2023/12/27 09:00:10;;;;;;;17.27;4.97;;;11.80;99.90;;;;;;6310198;28;20056;-86
2023/12/27 09:03:12;;;;;;;12.15;4.93;;;11.80;99.90;;;;;;6305422;28;20072;-88
2023/12/27 09:06:14;;;;;;;14.07;4.95;;;11.80;99.90;;;;;;6311618;28;20112;-89
2023/12/27 09:09:16;;;;;;;14.95;5.13;;;11.80;99.90;;;;;;6307667;28;20129;-92
2023/12/27 09:12:18;;;;;;;15.35;5.32;;;11.90;99.90;;;;;;6313379;28;20115;-89
2023/12/27 09:15:20;;;;;;;17.83;5.00;;;11.90;99.90;;;;;;6298392;28;20056;-89
2023/12/27 09:18:25;;;;;;;14.80;5.13;;;11.90;99.90;;;;;;6313911;28;20130;-86
2023/12/27 09:21:27;;;;;;;18.60;5.05;;;11.80;99.90;;;;;;6327272;28;20057;-90
2023/12/27 09:24:29;;;;;;;15.65;5.10;;;11.90;99.90;;;;;;6317339;28;20063;-88
2023/12/27 09:27:31;;;;;;;13.85;4.68;;;11.90;99.90;;;;;;6308338;28;20131;-91
2023/12/27 09:30:33;;;;;;;18.27;4.80;;;12.00;99.90;;;;;;6316624;28;20058;-86
2023/12/27 09:33:35;;;;;;;14.85;5.65;;;12.00;99.90;;;;;;6317785;28;20052;-89
2023/12/27 09:36:37;;;;;;;12.13;4.63;;;12.00;99.90;;;;;;6309278;28;20059;-89
2023/12/27 09:39:39;;;;;;;22.50;4.93;;;12.00;99.90;;;;;;6320897;28;20051;-91
2023/12/27 09:42:41;;;;;;;15.10;4.72;;;12.00;99.90;;;;;;6298960;28;20054;-89
2023/12/27 09:45:42;;;;;;;17.05;5.15;;;12.00;99.90;;;;;;6309843;28;20139;-86
2023/12/27 09:48:44;;;;;;;14.70;4.78;;;12.10;99.90;;;;;;6318260;28;20390;-88
2023/12/27 09:51:46;;;;;;;15.20;5.05;;;12.10;99.90;;;;;;6291942;28;20143;-88
2023/12/27 09:54:48;;;;;;;15.13;4.55;;;12.10;99.90;;;;;;6310870;28;20067;-87
2023/12/27 09:57:49;;;;;;;13.98;4.22;;;12.10;99.90;;;;;;6305247;28;20064;-87
2023/12/27 10:00:54;;;;;;;13.48;4.75;;;12.10;99.90;;;;;;6308643;28;20044;-87
2023/12/27 10:03:56;;;;;;;18.67;4.70;;;12.10;99.90;;;;;;6286543;28;20084;-87
2023/12/27 10:06:58;;;;;;;17.05;5.15;;;12.20;99.90;;;;;;6307788;28;20055;-87
2023/12/27 10:10:00;;;;;;;14.70;4.40;;;12.20;99.90;;;;;;6286744;28;20070;-87
2023/12/27 10:13:17;;;;;;;15.27;4.85;;;12.20;99.90;;;;;;6273439;28;20189;-87
2023/12/27 10:16:19;;;;;;;13.25;4.20;;;12.20;99.90;;;;;;6308354;28;20052;-85
2023/12/27 10:19:21;;;;;;;10.80;4.80;;;12.20;99.90;;;;;;6300132;28;20076;-89
2023/12/27 10:22:22;;;;;;;13.07;4.45;;;12.20;99.90;;;;;;6307195;28;20063;-87
2023/12/27 10:25:26;;;;;;;16.40;4.82;;;12.10;99.90;;;;;;6289919;28;20427;-88
2023/12/27 10:28:27;;;;;;;11.50;4.63;;;12.10;99.90;;;;;;6300880;28;20060;-88
2023/12/27 10:31:29;;;;;;;10.95;4.63;;;12.00;99.90;;;;;;6284334;28;20510;-87
2023/12/27 10:34:31;;;;;;;12.80;4.82;;;11.90;99.90;;;;;;6307163;28;20064;-85
2023/12/27 10:37:32;;;;;;;12.90;4.70;;;11.90;99.90;;;;;;6297521;28;20052;-88
2023/12/27 10:40:34;;;;;;;14.02;4.47;;;12.00;99.90;;;;;;6308053;28;20052;-86
2023/12/27 10:43:36;;;;;;;13.63;4.75;;;12.00;99.90;;;;;;6304517;28;20098;-86
2023/12/27 10:46:38;;;;;;;12.68;4.43;;;11.90;99.90;;;;;;6257229;28;20051;-86
2023/12/27 10:49:42;;;;;;;13.63;4.53;;;11.90;99.90;;;;;;6321686;28;20051;-86
2023/12/27 10:52:44;;;;;;;13.48;4.72;;;12.00;99.90;;;;;;6279984;28;20090;-86
2023/12/27 10:55:45;;;;;;;12.13;4.88;;;12.10;99.90;;;;;;6302821;28;20052;-85
2023/12/27 10:58:47;;;;;;;16.05;4.97;;;12.10;99.90;;;;;;6287585;28;20059;-85
2023/12/27 11:01:49;;;;;;;12.73;4.32;;;12.10;99.90;;;;;;6279962;28;20060;-84
2023/12/27 11:04:51;;;;;;;13.52;5.10;;;12.10;99.90;;;;;;6320217;28;20048;-86
2023/12/27 11:07:52;;;;;;;15.50;4.82;;;12.10;99.90;;;;;;6299529;28;20053;-87
2023/12/27 11:10:54;;;;;;;13.13;4.47;;;12.10;99.90;;;;;;6304385;28;20040;-85
2023/12/27 11:13:56;;;;;;;12.82;4.70;;;11.90;99.90;;;;;;6305700;28;20510;-85
2023/12/27 11:16:57;;;;;;;14.00;4.70;;;11.80;99.90;;;;;;6281489;28;20059;-89
2023/12/27 11:19:59;;;;;;;13.88;4.60;;;11.70;99.90;;;;;;6317145;28;20502;-93
2023/12/27 11:23:02;;;;;;;18.23;4.65;;;11.70;99.90;;;;;;6282700;28;20056;-84
2023/12/27 11:26:05;;;;;;;11.57;4.38;;;11.70;99.90;;;;;;6302245;28;20388;-88
2023/12/27 11:29:08;;;;;;;12.02;4.53;;;11.60;99.90;;;;;;6288381;28;20063;-85
2023/12/27 11:32:10;;;;;;;13.90;4.38;;;11.50;99.90;;;;;;6279523;28;20072;-90
2023/12/27 11:35:12;;;;;;;12.60;4.20;;;11.40;99.90;;;;;;6301988;28;20048;-93
2023/12/27 11:38:18;;;;;;;13.07;4.47;;;11.30;99.90;;;;;;6307032;28;20407;-88
2023/12/27 11:41:20;;;;;;;13.80;4.50;;;11.30;99.90;;;;;;6287521;28;20048;-84
2023/12/27 11:44:22;;;;;;;10.45;4.22;;;11.30;99.90;;;;;;6286325;28;20049;-87
2023/12/27 11:47:23;;;;;;;11.13;3.95;;;11.30;99.90;;;;;;6277437;28;20415;-88
2023/12/27 11:50:25;;;;;;;12.65;4.07;;;11.20;99.90;;;;;;6276906;28;20052;-87
2023/12/27 11:53:27;;;;;;;11.10;3.83;;;11.20;99.90;;;;;;6278908;28;20052;-88
2023/12/27 11:56:30;;;;;;;12.10;4.07;;;11.20;99.90;;;;;;6259274;28;20512;-90
2023/12/27 11:59:32;;;;;;;12.38;3.85;;;11.20;99.90;;;;;;6287740;28;20064;-92
2023/12/27 12:02:36;;;;;;;12.50;4.20;;;11.10;99.90;;;;;;6285796;28;20049;-89
2023/12/27 12:05:39;;;;;;;12.60;4.75;;;11.10;99.90;;;;;;6297657;28;20404;-93
2023/12/27 12:08:42;;;;;;;12.65;4.38;;;11.10;99.90;;;;;;6276971;28;20559;-91
2023/12/27 12:11:46;;;;;;;10.85;4.30;;;11.10;99.90;;;;;;6275671;28;20152;-93
2023/12/27 12:14:48;;;;;;;14.90;4.75;;;11.20;99.90;;;;;;6294695;28;20072;-88
2023/12/27 12:17:52;;;;;;;15.45;5.40;;;11.20;99.90;;;;;;6265704;28;20041;-90
2023/12/27 12:20:54;;;;;;;16.02;4.68;;;11.30;99.90;;;;;;6277584;28;20045;-88
2023/12/27 12:23:56;;;;;;;16.17;4.85;;;11.40;99.90;;;;;;6298381;28;20128;-86
2023/12/27 12:26:59;;;;;;;16.80;4.95;;;11.40;99.90;;;;;;6255905;28;20061;-87
2023/12/27 12:30:01;;;;;;;14.48;4.47;;;11.50;99.90;;;;;;6259005;28;20060;-87
2023/12/27 12:33:02;;;;;;;20.65;4.70;;;11.50;99.90;;;;;;6304580;28;20056;-88
2023/12/27 12:36:04;;;;;;;16.88;4.93;;;11.50;99.90;;;;;;6300122;28;20068;-87
2023/12/27 12:39:06;;;;;;;16.02;4.63;;;11.60;99.90;;;;;;6284849;28;20055;-90
2023/12/27 12:42:08;;;;;;;16.08;5.55;;;11.80;99.90;;;;;;6283081;28;20050;-90
2023/12/27 12:45:10;;;;;;;14.07;4.03;;;11.80;99.90;;;;;;6298996;28;20108;-87
2023/12/27 12:48:11;;;;;;;13.52;3.60;;;11.80;99.90;;;;;;6279855;28;20056;-88
2023/12/27 12:51:15;;;;;;;13.43;3.60;;;11.90;99.90;;;;;;6299644;28;20073;-86
2023/12/27 12:54:17;;;;;;;11.93;3.80;;;12.00;99.90;;;;;;6278880;28;20049;-87
2023/12/27 12:57:20;;;;;;;10.77;3.70;;;12.00;99.90;;;;;;6300144;28;20056;-88
2023/12/27 13:00:22;;;;;;;10.25;3.53;;;12.10;99.90;;;;;;6281085;28;20084;-87
2023/12/27 13:03:24;;;;;;;13.43;3.83;;;12.10;99.90;;;;;;6282223;28;20052;-87
2023/12/27 13:06:26;;;;;;;9.85;3.65;;;12.10;99.90;;;;;;6280510;28;20049;-87
2023/12/27 13:09:28;;;;;;;15.15;4.20;;;12.20;99.90;;;;;;6280039;28;20086;-84
2023/12/27 13:12:31;;;;;;;10.52;3.55;;;12.20;99.90;;;;;;6281990;28;20061;-87
2023/12/27 13:15:33;;;;;;;12.70;3.92;;;12.10;99.90;;;;;;6278818;28;20055;-86
2023/12/27 13:18:36;;;;;;;13.82;3.88;;;12.20;99.90;;;;;;6280460;28;20059;-85
2023/12/27 13:21:42;;;;;;;14.02;4.10;;;12.20;99.90;;;;;;6230289;28;20064;-86
2023/12/27 13:24:44;;;;;;;11.95;3.90;;;12.20;99.90;;;;;;6278747;28;20048;-86
2023/12/27 13:27:46;;;;;;;13.85;3.72;;;12.10;99.90;;;;;;6278475;28;20048;-86
2023/12/27 13:31:04;;;;;;;12.57;3.47;;;12.10;99.90;;;;;;6298049;28;20060;-85
2023/12/27 13:34:07;;;;;;;16.77;4.13;;;12.10;99.90;;;;;;6279895;28;20052;-84
2023/12/27 13:37:08;;;;;;;14.50;4.05;;;12.10;99.90;;;;;;6298729;28;20064;-84
2023/12/27 13:40:10;;;;;;;11.68;3.63;;;12.10;99.90;;;;;;6298636;28;20064;-86
2023/12/27 13:43:12;;;;;;;13.73;3.67;;;12.20;99.90;;;;;;6279334;28;20131;-85
2023/12/27 13:46:13;;;;;;;12.73;3.30;;;12.20;99.90;;;;;;6280447;28;20080;-87
2023/12/27 13:49:15;;;;;;;13.35;3.80;;;12.20;99.90;;;;;;6256913;28;20060;-89
2023/12/27 13:52:17;;;;;;;15.43;3.97;;;12.20;99.90;;;;;;6278452;28;20068;-86
2023/12/27 13:55:22;;;;;;;13.02;3.53;;;12.20;99.90;;;;;;6253274;28;20397;-87
2023/12/27 13:58:24;;;;;;;15.82;3.25;;;12.10;99.90;;;;;;6271511;28;20144;-87
2023/12/27 14:01:26;;;;;;;17.08;3.70;;;12.00;99.90;;;;;;6255984;28;20049;-88
2023/12/27 14:04:27;;;;;;;14.35;3.83;;;12.00;99.90;;;;;;6279507;28;20052;-87
2023/12/27 14:07:29;;;;;;;13.77;3.60;;;11.80;99.90;;;;;;6279142;28;20056;-84
2023/12/27 14:10:31;;;;;;;14.52;3.42;;;11.70;99.90;;;;;;6302444;28;20139;-84
2023/12/27 14:13:33;;;;;;;13.73;3.53;;;11.70;99.90;;;;;;6283697;28;20063;-88
2023/12/27 14:16:36;;;;;;;17.42;4.05;;;11.60;99.90;;;;;;6280147;28;20135;-86
2023/12/27 14:19:39;;;;;;;18.45;4.43;;;11.50;99.90;;;;;;6281225;28;20059;-86
2023/12/27 14:22:41;;;;;;;15.30;4.15;;;11.50;99.90;;;;;;6278010;28;20052;-85
2023/12/27 14:25:43;;;;;;;11.23;3.53;;;11.30;99.90;;;;;;6263440;28;20390;-89
2023/12/27 14:28:45;;;;;;;12.18;3.28;;;11.30;99.90;;;;;;6280015;28;20048;-88
2023/12/27 14:31:48;;;;;;;14.70;3.67;;;11.20;99.90;;;;;;6282817;28;20057;-89
2023/12/27 14:34:51;;;;;;;12.73;3.50;;;11.20;99.90;;;;;;6271317;28;20160;-89
2023/12/27 14:37:54;;;;;;;11.10;3.42;;;11.20;99.90;;;;;;6266478;28;20076;-88
2023/12/27 14:40:56;;;;;;;12.90;3.40;;;11.20;99.90;;;;;;6286540;28;20647;-89
2023/12/27 14:43:58;;;;;;;13.60;3.90;;;11.20;99.90;;;;;;6279173;28;20435;-91
2023/12/27 14:47:01;;;;;;;12.27;3.60;;;11.20;99.90;;;;;;6317165;28;20025;-92
2023/12/27 14:50:08;;;;;;;13.25;4.07;;;11.10;99.90;;;;;;6327984;28;20052;-91
2023/12/27 14:53:10;;;;;;;16.90;4.03;;;11.10;99.90;;;;;;6330816;28;20047;-93
2023/12/27 14:56:12;;;;;;;14.32;3.78;;;11.10;99.90;;;;;;6315614;28;20080;-94
2023/12/27 14:59:22;;;;;;;15.20;3.80;;;11.10;99.90;;;;;;6329572;28;20060;-92
2023/12/27 15:02:24;;;;;;;14.35;3.83;;;11.10;99.90;;;;;;6312612;28;20045;-93
2023/12/27 15:05:28;;;;;;;17.58;4.05;;;11.10;99.90;;;;;;6324473;28;20056;-85
2023/12/27 15:08:30;;;;;;;14.23;4.05;;;11.10;99.90;;;;;;6309058;28;20052;-89
2023/12/27 15:11:32;;;;;;;10.40;3.75;;;11.10;99.90;;;;;;6310378;28;20035;-89
2023/12/27 15:14:34;;;;;;;10.32;3.92;;;11.10;99.90;;;;;;6329847;28;20048;-89
2023/12/27 15:17:50;;;;;;;13.57;3.70;;;11.10;99.90;;;;;;6272239;28;20053;-90
2023/12/27 15:20:52;;;;;;;11.48;3.17;;;11.10;99.90;;;;;;6321206;28;20033;-90
2023/12/27 15:23:58;;;;;;;11.05;3.63;;;11.00;99.90;;;;;;6289028;28;20079;-92
2023/12/27 15:27:00;;;;;;;12.60;3.72;;;11.10;99.90;;;;;;6311929;28;20111;-94
2023/12/27 15:30:04;;;;;;;9.73;3.55;;;11.10;99.90;;;;;;6330598;28;20055;-95
2023/12/27 15:33:10;;;;;;;11.40;3.58;;;11.20;99.90;;;;;;6333195;28;20476;-94
2023/12/27 15:36:13;;;;;;;10.60;3.28;;;11.20;99.90;;;;;;6303569;28;20055;-95
2023/12/27 15:39:19;;;;;;;14.27;3.53;;;11.20;99.90;;;;;;6329074;28;20074;-93